Time;durP1;ratioP1;P1;durP2;ratioP2;P2;SDS_P1;SDS_P2;PMS_P1;PMS_P2;Temp;Humidity;BMP_temperature;BMP_pressure;BME280_temperature;BME280_humidity;BME280_pressure;Samples;Min_cycle;Max_cycle;Signal;HPM_P1;HPM_P2
2022/08/08 00:00:25;;;;;;;2.75;1.60;;;;;;;;;;5084715;28;20029;-79
2022/08/08 00:03:16;;;;;;;3.08;1.95;;;;;;;;;;5066132;28;20392;-79
2022/08/08 00:05:45;;;;;;;2.42;1.70;;;;;;;;;;5067850;28;20112;-79
2022/08/08 00:08:32;;;;;;;4.88;1.60;;;;;;;;;;5085548;28;20505;-79
2022/08/08 00:11:05;;;;;;;6.57;1.63;;;;;;;;;;5082867;28;20439;-79
2022/08/08 00:14:08;;;;;;;3.63;1.83;;;;;;;;;;5083944;28;20386;-79
2022/08/08 00:16:49;;;;;;;2.65;1.30;;;;;;;;;;5086315;28;20497;-80
2022/08/08 00:19:21;;;;;;;5.28;1.80;;;;;;;;;;5084773;28;20081;-79
2022/08/08 00:21:52;;;;;;;3.85;1.60;;;;;;;;;;5064905;28;20566;-78
2022/08/08 00:24:23;;;;;;;5.22;1.40;;;;;;;;;;5066216;28;20028;-79
2022/08/08 00:26:54;;;;;;;7.55;2.10;;;;;;;;;;5067660;28;20021;-79
2022/08/08 00:29:26;;;;;;;1.98;1.40;;;;;;;;;;5084010;28;20032;-79
2022/08/08 00:31:56;;;;;;;3.10;1.67;;;;;;;;;;5084325;28;20047;-79
2022/08/08 00:38:02;;;;;;;2.70;1.65;;;;;;;;;;5082854;28;20035;-78
2022/08/08 00:40:28;;;;;;;3.35;1.55;;;;;;;;;;5065905;28;20024;-79
2022/08/08 00:43:20;;;;;;;4.33;1.60;;;;;;;;;;5067291;28;20024;-78
2022/08/08 00:45:59;;;;;;;2.83;1.55;;;;;;;;;;5088742;28;20249;-79
2022/08/08 00:48:52;;;;;;;3.08;1.60;;;;;;;;;;5088658;28;20032;-79
2022/08/08 00:51:26;;;;;;;2.60;1.58;;;;;;;;;;5089040;28;20032;-79
2022/08/08 00:54:08;;;;;;;3.05;1.50;;;;;;;;;;5087904;28;20123;-79
2022/08/08 00:57:01;;;;;;;2.08;1.50;;;;;;;;;;5088103;28;20035;-77
2022/08/08 00:59:45;;;;;;;2.60;1.60;;;;;;;;;;5087614;28;20024;-79
2022/08/08 01:02:50;;;;;;;4.32;1.73;;;;;;;;;;5087525;28;20147;-79
2022/08/08 01:05:37;;;;;;;2.35;1.60;;;;;;;;;;5086799;28;20476;-77
2022/08/08 01:08:52;;;;;;;3.17;1.70;;;;;;;;;;5085043;28;20025;-79
2022/08/08 01:11:35;;;;;;;7.47;1.70;;;;;;;;;;5086196;28;20082;-79
2022/08/08 01:14:16;;;;;;;2.15;1.42;;;;;;;;;;5084983;28;20056;-79
2022/08/08 01:17:09;;;;;;;2.95;1.70;;;;;;;;;;5087308;28;20037;-80
2022/08/08 01:19:59;;;;;;;2.60;1.50;;;;;;;;;;5067695;28;20031;-78
2022/08/08 01:22:43;;;;;;;4.80;1.60;;;;;;;;;;5085407;28;20040;-78
2022/08/08 01:25:37;;;;;;;2.97;1.75;;;;;;;;;;5081791;28;20571;-79
2022/08/08 01:28:27;;;;;;;5.25;1.80;;;;;;;;;;5087059;28;20527;-79
2022/08/08 01:31:31;;;;;;;3.40;1.58;;;;;;;;;;5086698;28;20029;-77
2022/08/08 01:34:34;;;;;;;2.97;1.67;;;;;;;;;;5084856;28;20028;-79
2022/08/08 01:37:21;;;;;;;3.42;1.60;;;;;;;;;;5084367;28;20025;-78
2022/08/08 01:40:12;;;;;;;3.50;1.70;;;;;;;;;;5067297;28;20028;-78
2022/08/08 01:42:52;;;;;;;3.78;1.60;;;;;;;;;;5084643;28;20023;-78
2022/08/08 01:45:44;;;;;;;3.90;1.65;;;;;;;;;;5085194;28;20497;-78
2022/08/08 01:48:32;;;;;;;7.63;2.05;;;;;;;;;;5086231;28;20039;-80
2022/08/08 01:51:31;;;;;;;3.00;1.50;;;;;;;;;;5086268;28;20067;-79
2022/08/08 01:54:24;;;;;;;5.85;1.77;;;;;;;;;;5084426;28;20027;-78
2022/08/08 01:57:17;;;;;;;2.70;1.50;;;;;;;;;;5086455;28;20021;-77
2022/08/08 01:59:50;;;;;;;2.97;1.63;;;;;;;;;;5067927;28;20058;-80
2022/08/08 02:02:35;;;;;;;4.45;1.50;;;;;;;;;;5085895;28;20025;-78
2022/08/08 02:05:29;;;;;;;2.47;1.60;;;;;;;;;;5083437;28;20031;-78
2022/08/08 02:08:16;;;;;;;2.85;1.60;;;;;;;;;;5084223;28;20119;-80
2022/08/08 02:10:44;;;;;;;5.43;1.60;;;;;;;;;;5086751;28;20060;-80
2022/08/08 02:13:15;;;;;;;5.55;1.77;;;;;;;;;;5086517;28;20048;-78
2022/08/08 02:16:13;;;;;;;4.68;1.80;;;;;;;;;;5086784;28;20025;-80
2022/08/08 02:18:59;;;;;;;1.58;1.40;;;;;;;;;;5087726;28;20393;-79
2022/08/08 02:24:27;;;;;;;5.25;1.67;;;;;;;;;;5085330;28;20023;-81
2022/08/08 02:27:11;;;;;;;5.15;1.80;;;;;;;;;;5080749;28;20103;-79
2022/08/08 02:30:03;;;;;;;2.92;1.77;;;;;;;;;;5060242;28;20494;-83
2022/08/08 02:32:51;;;;;;;6.05;1.77;;;;;;;;;;5074345;28;20068;-80
2022/08/08 02:35:43;;;;;;;4.47;1.92;;;;;;;;;;5084736;28;20097;-80
2022/08/08 02:38:32;;;;;;;3.72;1.70;;;;;;;;;;5053807;28;20041;-80
2022/08/08 02:41:25;;;;;;;5.05;1.60;;;;;;;;;;5084551;28;20051;-79
2022/08/08 02:44:28;;;;;;;3.28;1.73;;;;;;;;;;5066533;28;20020;-79
2022/08/08 02:46:59;;;;;;;3.53;1.77;;;;;;;;;;5082819;28;20024;-78
2022/08/08 02:50:07;;;;;;;6.95;1.85;;;;;;;;;;5064798;28;20050;-78
2022/08/08 02:52:49;;;;;;;4.95;1.67;;;;;;;;;;5084249;28;20033;-79
2022/08/08 02:55:33;;;;;;;8.13;2.10;;;;;;;;;;5082832;28;20381;-78
2022/08/08 02:58:33;;;;;;;3.63;1.75;;;;;;;;;;5084876;28;20386;-79
2022/08/08 03:01:17;;;;;;;4.05;1.98;;;;;;;;;;5084926;28;20047;-81
2022/08/08 03:04:32;;;;;;;4.95;2.00;;;;;;;;;;5099204;28;20096;-79
2022/08/08 03:07:16;;;;;;;4.03;1.90;;;;;;;;;;5099053;28;20028;-79
2022/08/08 03:09:59;;;;;;;;;;;;;;;;;;5099839;28;20030;-79
2022/08/08 03:13:10;;;;;;;2.72;1.75;;;;;;;;;;5081171;28;19916;-80
2022/08/08 03:15:58;;;;;;;3.30;1.88;;;;;;;;;;5087594;28;20050;-78
2022/08/08 03:18:35;;;;;;;3.40;1.90;;;;;;;;;;5083714;28;20027;-78
2022/08/08 03:21:00;;;;;;;5.47;2.10;;;;;;;;;;5068247;28;20025;-78
2022/08/08 03:23:26;;;;;;;6.20;2.13;;;;;;;;;;5064192;28;20059;-77
2022/08/08 03:25:53;;;;;;;4.47;1.85;;;;;;;;;;5059335;28;20390;-77
2022/08/08 03:28:43;;;;;;;2.30;1.77;;;;;;;;;;5078679;28;20024;-79
2022/08/08 03:33:53;;;;;;;3.28;1.83;;;;;;;;;;5080939;28;20520;-78
2022/08/08 03:36:18;;;;;;;2.75;2.10;;;;;;;;;;5080566;28;20021;-77
2022/08/08 03:38:51;;;;;;;3.40;1.75;;;;;;;;;;5080534;28;20036;-79
2022/08/08 03:41:17;;;;;;;3.60;1.92;;;;;;;;;;5057396;28;20362;-79
2022/08/08 03:43:55;;;;;;;3.30;2.00;;;;;;;;;;5075027;28;20103;-77
2022/08/08 03:46:20;;;;;;;3.45;2.10;;;;;;;;;;5074971;28;20020;-78
2022/08/08 03:48:57;;;;;;;3.43;2.20;;;;;;;;;;5056657;28;20397;-79
2022/08/08 03:51:23;;;;;;;2.15;1.55;;;;;;;;;;5074576;28;20809;-79
2022/08/08 03:53:50;;;;;;;3.20;1.90;;;;;;;;;;5074807;28;20439;-80
2022/08/08 03:56:15;;;;;;;3.83;1.88;;;;;;;;;;5075221;28;20044;-80
2022/08/08 03:58:47;;;;;;;3.25;1.98;;;;;;;;;;5057588;28;20052;-80
2022/08/08 04:01:12;;;;;;;2.42;1.77;;;;;;;;;;5075114;28;20478;-80
2022/08/08 04:03:37;;;;;;;5.15;1.90;;;;;;;;;;5076126;28;20035;-81
2022/08/08 04:06:05;;;;;;;3.03;1.60;;;;;;;;;;5080743;28;20382;-79
2022/08/08 04:08:30;;;;;;;3.10;1.88;;;;;;;;;;5079983;28;20257;-80
2022/08/08 04:10:55;;;;;;;2.97;1.97;;;;;;;;;;5081182;28;20154;-79
2022/08/08 04:13:21;;;;;;;4.38;1.92;;;;;;;;;;5083350;28;20249;-80
2022/08/08 04:15:46;;;;;;;4.00;1.73;;;;;;;;;;5083990;28;20033;-79
2022/08/08 04:18:12;;;;;;;3.00;1.85;;;;;;;;;;5087849;28;20055;-80
2022/08/08 04:20:37;;;;;;;5.25;1.77;;;;;;;;;;5088892;28;20033;-80
2022/08/08 04:23:03;;;;;;;3.22;1.75;;;;;;;;;;5086966;28;20036;-81
2022/08/08 04:25:29;;;;;;;4.07;2.53;;;;;;;;;;5068762;28;20047;-78
2022/08/08 04:27:54;;;;;;;5.25;1.90;;;;;;;;;;5087972;28;20024;-79
2022/08/08 04:30:20;;;;;;;3.38;2.10;;;;;;;;;;5085913;28;20024;-79
2022/08/08 04:32:46;;;;;;;5.80;2.08;;;;;;;;;;5066349;28;20024;-78
2022/08/08 04:35:11;;;;;;;4.80;2.05;;;;;;;;;;5065790;28;20131;-78
2022/08/08 04:37:37;;;;;;;4.70;2.00;;;;;;;;;;5084808;28;20027;-80
2022/08/08 04:40:03;;;;;;;4.33;2.30;;;;;;;;;;5086716;28;20050;-80
2022/08/08 04:42:32;;;;;;;4.03;1.80;;;;;;;;;;5086025;28;20254;-80
2022/08/08 04:44:57;;;;;;;4.82;2.08;;;;;;;;;;5067748;28;20091;-79
2022/08/08 04:47:23;;;;;;;8.10;1.90;;;;;;;;;;5066468;28;20485;-80
2022/08/08 04:49:48;;;;;;;5.22;1.88;;;;;;;;;;5084097;28;20111;-79
2022/08/08 04:52:13;;;;;;;3.97;1.73;;;;;;;;;;5083727;28;20390;-79
2022/08/08 04:54:38;;;;;;;2.95;1.90;;;;;;;;;;5085596;28;20028;-79
2022/08/08 04:57:04;;;;;;;3.20;1.90;;;;;;;;;;5083439;28;20025;-79
2022/08/08 04:59:29;;;;;;;3.38;1.92;;;;;;;;;;5084381;28;20261;-79
2022/08/08 05:01:55;;;;;;;3.95;2.03;;;;;;;;;;5084471;28;20028;-78
2022/08/08 05:04:20;;;;;;;9.05;2.10;;;;;;;;;;5065541;28;20052;-78
2022/08/08 05:06:47;;;;;;;5.03;1.97;;;;;;;;;;5063855;28;20165;-78
2022/08/08 05:09:12;;;;;;;3.92;2.10;;;;;;;;;;5081271;28;20303;-79
2022/08/08 05:11:37;;;;;;;7.20;2.03;;;;;;;;;;5083262;28;20504;-79
2022/08/08 05:14:03;;;;;;;5.78;1.73;;;;;;;;;;5082983;28;20032;-79
2022/08/08 05:16:29;;;;;;;4.20;1.97;;;;;;;;;;5083774;28;20044;-79
2022/08/08 05:18:55;;;;;;;3.65;1.98;;;;;;;;;;5084067;28;20341;-79
2022/08/08 05:21:20;;;;;;;4.85;1.88;;;;;;;;;;5084814;28;20032;-80
2022/08/08 05:23:45;;;;;;;3.10;1.80;;;;;;;;;;5084534;28;20089;-80
2022/08/08 05:26:11;;;;;;;6.10;1.90;;;;;;;;;;5085217;28;20012;-79
2022/08/08 05:28:36;;;;;;;4.38;2.03;;;;;;;;;;5082670;28;20258;-78
2022/08/08 05:31:01;;;;;;;3.90;2.20;;;;;;;;;;5083949;28;20025;-78
2022/08/08 05:33:26;;;;;;;6.23;2.10;;;;;;;;;;5082417;28;20269;-79
2022/08/08 05:35:53;;;;;;;4.68;2.13;;;;;;;;;;5082314;28;20712;-78
2022/08/08 05:38:21;;;;;;;2.88;1.92;;;;;;;;;;5076540;28;20050;-80
2022/08/08 05:40:48;;;;;;;6.88;2.00;;;;;;;;;;5060522;28;20102;-80
2022/08/08 05:43:22;;;;;;;3.30;2.13;;;;;;;;;;5060645;28;20027;-79
2022/08/08 05:45:48;;;;;;;5.20;1.92;;;;;;;;;;5080149;28;20091;-80
2022/08/08 05:48:15;;;;;;;3.53;2.00;;;;;;;;;;5080336;28;20060;-81
2022/08/08 05:50:40;;;;;;;5.05;2.10;;;;;;;;;;5080678;28;20477;-80
2022/08/08 05:53:06;;;;;;;5.43;1.92;;;;;;;;;;5079723;28;20070;-80
2022/08/08 05:55:33;;;;;;;6.65;2.10;;;;;;;;;;5080703;28;20052;-79
2022/08/08 05:57:59;;;;;;;3.83;2.00;;;;;;;;;;5062945;28;20074;-79
2022/08/08 06:00:29;;;;;;;6.38;2.00;;;;;;;;;;5080754;28;20028;-79
2022/08/08 06:03:09;;;;;;;4.15;2.03;;;;;;;;;;5080769;28;20051;-79
2022/08/08 06:05:43;;;;;;;2.35;1.77;;;;;;;;;;5062052;28;20466;-80
2022/08/08 06:08:12;;;;;;;3.67;1.83;;;;;;;;;;5082925;28;20036;-81
2022/08/08 06:10:39;;;;;;;4.65;2.00;;;;;;;;;;5067075;28;20500;-80
2022/08/08 06:13:06;;;;;;;4.68;1.80;;;;;;;;;;5084614;28;20028;-80
2022/08/08 06:15:31;;;;;;;3.03;1.85;;;;;;;;;;5085111;28;20017;-80
2022/08/08 06:17:57;;;;;;;4.30;2.10;;;;;;;;;;5084643;28;20425;-80
2022/08/08 06:20:23;;;;;;;3.55;2.00;;;;;;;;;;5066834;28;20084;-81
2022/08/08 06:22:48;;;;;;;2.70;1.92;;;;;;;;;;5084856;28;20032;-80
2022/08/08 06:25:13;;;;;;;3.13;1.77;;;;;;;;;;5084553;28;20021;-79
2022/08/08 06:27:52;;;;;;;6.97;2.03;;;;;;;;;;5085486;28;20253;-79
2022/08/08 06:30:18;;;;;;;5.25;1.98;;;;;;;;;;5066629;28;20032;-80
2022/08/08 06:32:46;;;;;;;7.55;1.95;;;;;;;;;;5066302;28;20029;-81
2022/08/08 06:35:14;;;;;;;4.25;2.05;;;;;;;;;;5084830;28;20025;-80
2022/08/08 06:37:56;;;;;;;3.67;1.70;;;;;;;;;;5084550;28;20070;-79
2022/08/08 06:40:24;;;;;;;5.30;1.88;;;;;;;;;;5066681;28;20070;-79
2022/08/08 06:42:53;;;;;;;2.65;1.80;;;;;;;;;;5083942;28;20030;-79
2022/08/08 06:45:36;;;;;;;5.30;2.00;;;;;;;;;;5065366;28;20063;-78
2022/08/08 06:48:02;;;;;;;3.17;2.20;;;;;;;;;;5083977;28;20082;-80
2022/08/08 06:50:34;;;;;;;2.95;2.00;;;;;;;;;;5084141;28;20074;-79
2022/08/08 06:53:01;;;;;;;2.70;1.90;;;;;;;;;;5066709;28;20020;-80
2022/08/08 06:55:27;;;;;;;4.40;1.95;;;;;;;;;;5084021;28;20107;-78
2022/08/08 06:57:52;;;;;;;4.13;2.05;;;;;;;;;;5065779;28;20025;-79
2022/08/08 07:00:17;;;;;;;2.97;2.07;;;;;;;;;;5081533;28;20078;-80
2022/08/08 07:03:07;;;;;;;3.90;2.17;;;;;;;;;;5082661;28;20257;-78
2022/08/08 07:05:37;;;;;;;4.95;1.90;;;;;;;;;;5083287;28;20734;-78
2022/08/08 07:08:16;;;;;;;9.20;2.10;;;;;;;;;;5082520;28;20044;-78
2022/08/08 07:10:48;;;;;;;2.92;1.80;;;;;;;;;;5081493;28;20040;-78
2022/08/08 07:13:16;;;;;;;2.13;1.85;;;;;;;;;;5064412;28;20385;-80
2022/08/08 07:15:51;;;;;;;2.30;1.80;;;;;;;;;;5082740;28;20051;-79
2022/08/08 07:18:31;;;;;;;3.55;1.63;;;;;;;;;;5083352;28;20225;-80
2022/08/08 07:21:04;;;;;;;5.65;1.90;;;;;;;;;;5081332;28;20035;-78
2022/08/08 07:23:37;;;;;;;4.85;2.33;;;;;;;;;;5063035;28;20035;-80
2022/08/08 07:26:02;;;;;;;4.28;1.63;;;;;;;;;;5082116;28;20044;-79
2022/08/08 07:28:28;;;;;;;9.70;1.90;;;;;;;;;;5082417;28;20024;-80
2022/08/08 07:30:53;;;;;;;3.40;1.48;;;;;;;;;;5080898;28;20107;-79
2022/08/08 07:33:21;;;;;;;5.00;1.70;;;;;;;;;;5082166;28;20020;-79
2022/08/08 07:35:48;;;;;;;8.13;1.85;;;;;;;;;;5081803;28;20033;-78
2022/08/08 07:38:17;;;;;;;5.20;1.80;;;;;;;;;;5082083;28;20457;-79
2022/08/08 07:40:47;;;;;;;7.35;1.88;;;;;;;;;;5082602;28;20546;-77
2022/08/08 07:43:13;;;;;;;6.95;1.70;;;;;;;;;;5064895;28;20028;-78
2022/08/08 07:45:39;;;;;;;4.90;1.50;;;;;;;;;;5084214;28;20081;-79
2022/08/08 07:48:05;;;;;;;2.78;1.80;;;;;;;;;;5083211;28;20131;-79
2022/08/08 07:50:35;;;;;;;4.18;1.73;;;;;;;;;;5081540;28;20059;-79
2022/08/08 07:53:34;;;;;;;2.35;1.70;;;;;;;;;;5086354;28;20389;-79
2022/08/08 07:56:01;;;;;;;4.50;1.45;;;;;;;;;;5075552;28;20096;-78
2022/08/08 07:58:30;;;;;;;4.38;1.77;;;;;;;;;;5066687;28;20024;-79
2022/08/08 08:01:03;;;;;;;9.45;1.67;;;;;;;;;;5086689;28;20032;-78
2022/08/08 08:03:47;;;;;;;3.75;1.60;;;;;;;;;;5087664;28;20024;-80
2022/08/08 08:06:13;;;;;;;2.75;1.73;;;;;;;;;;5067774;28;20028;-79
2022/08/08 08:08:41;;;;;;;2.47;1.27;;;;;;;;;;5085530;28;20035;-79
2022/08/08 08:11:13;;;;;;;3.58;1.60;;;;;;;;;;5085366;28;20032;-80
2022/08/08 08:13:55;;;;;;;2.72;1.40;;;;;;;;;;5085133;28;20080;-79
2022/08/08 08:16:25;;;;;;;2.00;1.20;;;;;;;;;;5068140;28;20052;-78
2022/08/08 08:18:56;;;;;;;2.58;1.38;;;;;;;;;;5067277;28;20139;-79
2022/08/08 08:21:25;;;;;;;3.65;1.40;;;;;;;;;;5086198;28;20027;-80
2022/08/08 08:23:50;;;;;;;3.00;1.27;;;;;;;;;;5067312;28;20029;-79
2022/08/08 08:26:17;;;;;;;3.15;1.20;;;;;;;;;;5084651;28;20021;-80
2022/08/08 08:28:43;;;;;;;2.90;1.15;;;;;;;;;;5065986;28;20037;-80
2022/08/08 08:31:08;;;;;;;1.40;1.27;;;;;;;;;;5067063;28;20028;-79
2022/08/08 08:33:33;;;;;;;2.70;1.30;;;;;;;;;;5084670;28;20070;-79
2022/08/08 08:36:00;;;;;;;3.85;1.40;;;;;;;;;;5084894;28;20035;-78
2022/08/08 08:38:25;;;;;;;1.92;1.25;;;;;;;;;;5066095;28;20033;-78
2022/08/08 08:40:51;;;;;;;6.78;1.38;;;;;;;;;;5084336;28;20024;-77
2022/08/08 08:43:17;;;;;;;3.25;1.40;;;;;;;;;;5083762;28;20039;-77
2022/08/08 08:45:45;;;;;;;12.93;1.33;;;;;;;;;;5084438;28;20465;-79
2022/08/08 08:48:12;;;;;;;3.50;1.15;;;;;;;;;;5085142;28;20032;-80
2022/08/08 08:50:40;;;;;;;1.80;1.20;;;;;;;;;;5083508;28;20095;-78
2022/08/08 08:53:08;;;;;;;4.85;1.15;;;;;;;;;;5082853;28;20059;-79
2022/08/08 08:55:36;;;;;;;3.00;1.25;;;;;;;;;;5083536;28;20052;-79
2022/08/08 08:58:02;;;;;;;1.88;1.15;;;;;;;;;;5083365;28;20040;-79
2022/08/08 09:00:28;;;;;;;2.17;1.15;;;;;;;;;;5082453;28;20035;-79
2022/08/08 09:02:57;;;;;;;3.45;1.30;;;;;;;;;;5063862;28;20040;-79
2022/08/08 09:05:24;;;;;;;2.42;1.30;;;;;;;;;;5082641;28;20021;-80
2022/08/08 09:07:52;;;;;;;3.33;1.33;;;;;;;;;;5084740;28;20024;-78
2022/08/08 09:10:18;;;;;;;4.43;1.50;;;;;;;;;;5085345;28;20463;-80
2022/08/08 09:12:46;;;;;;;3.03;1.20;;;;;;;;;;5086020;28;20020;-80
2022/08/08 09:15:11;;;;;;;5.28;1.27;;;;;;;;;;5066286;28;20108;-80
2022/08/08 09:17:38;;;;;;;1.90;1.17;;;;;;;;;;5082826;28;20079;-80
2022/08/08 09:20:04;;;;;;;2.00;1.25;;;;;;;;;;5081740;28;20027;-80
2022/08/08 09:22:34;;;;;;;2.97;1.20;;;;;;;;;;5082346;28;20032;-77
2022/08/08 09:25:00;;;;;;;1.55;1.30;;;;;;;;;;5084028;28;20013;-81
2022/08/08 09:27:25;;;;;;;2.65;1.02;;;;;;;;;;5083094;28;20107;-79
2022/08/08 09:30:03;;;;;;;2.03;1.30;;;;;;;;;;5065417;28;20056;-80
2022/08/08 09:32:36;;;;;;;2.92;1.40;;;;;;;;;;5076688;28;20031;-79
2022/08/08 09:35:04;;;;;;;6.30;1.20;;;;;;;;;;5064704;28;20035;-80
2022/08/08 09:37:46;;;;;;;3.72;1.30;;;;;;;;;;5083895;28;20253;-80
2022/08/08 09:40:14;;;;;;;2.88;1.20;;;;;;;;;;5066335;28;20035;-79
2022/08/08 09:42:42;;;;;;;3.22;1.30;;;;;;;;;;5083790;28;20103;-80
2022/08/08 09:45:10;;;;;;;1.30;1.15;;;;;;;;;;5082604;28;20029;-78
2022/08/08 09:47:38;;;;;;;2.15;1.08;;;;;;;;;;5082433;28;20016;-80
2022/08/08 09:50:07;;;;;;;4.43;1.38;;;;;;;;;;5083564;28;20024;-80
2022/08/08 09:52:34;;;;;;;3.00;1.17;;;;;;;;;;5064480;28;20027;-80
2022/08/08 09:54:59;;;;;;;2.08;1.25;;;;;;;;;;5083448;28;20025;-79
2022/08/08 09:57:36;;;;;;;2.00;1.20;;;;;;;;;;5082958;28;20119;-79
2022/08/08 10:00:08;;;;;;;2.30;1.13;;;;;;;;;;5082781;28;20024;-79
2022/08/08 10:02:37;;;;;;;2.55;1.33;;;;;;;;;;5064803;28;20446;-81
2022/08/08 10:05:07;;;;;;;2.13;1.08;;;;;;;;;;5083105;28;20466;-79
2022/08/08 10:07:32;;;;;;;2.67;1.33;;;;;;;;;;5082989;28;20024;-79
2022/08/08 10:09:58;;;;;;;2.05;1.00;;;;;;;;;;5081371;28;20058;-79
2022/08/08 10:12:38;;;;;;;1.80;1.10;;;;;;;;;;5063766;28;20020;-79
2022/08/08 10:15:06;;;;;;;4.22;1.13;;;;;;;;;;5062533;28;20090;-78
2022/08/08 10:17:42;;;;;;;2.75;1.30;;;;;;;;;;5082595;28;20031;-79
2022/08/08 10:20:11;;;;;;;1.98;1.20;;;;;;;;;;5081726;28;20459;-78
2022/08/08 10:22:44;;;;;;;4.00;1.40;;;;;;;;;;5063849;28;20439;-79
2022/08/08 10:25:17;;;;;;;3.35;1.13;;;;;;;;;;5082481;28;20052;-79
2022/08/08 10:27:42;;;;;;;3.40;1.30;;;;;;;;;;5083418;28;20056;-79
2022/08/08 10:30:09;;;;;;;3.92;1.20;;;;;;;;;;5083417;28;20059;-80
2022/08/08 10:32:41;;;;;;;1.90;1.20;;;;;;;;;;5082685;28;20040;-78
2022/08/08 10:35:15;;;;;;;2.58;1.10;;;;;;;;;;5083687;28;20028;-81
2022/08/08 10:37:52;;;;;;;3.28;1.13;;;;;;;;;;5065210;28;20098;-79
2022/08/08 10:40:19;;;;;;;5.85;1.30;;;;;;;;;;5083314;28;20025;-80
2022/08/08 10:42:53;;;;;;;2.15;1.20;;;;;;;;;;5082790;28;20080;-79
2022/08/08 10:45:18;;;;;;;2.17;0.98;;;;;;;;;;5081279;28;20089;-79
2022/08/08 10:47:51;;;;;;;1.65;1.00;;;;;;;;;;5081899;28;20044;-79
2022/08/08 10:50:16;;;;;;;1.50;1.20;;;;;;;;;;5082924;28;20607;-78
2022/08/08 10:52:42;;;;;;;1.70;1.10;;;;;;;;;;5079603;28;20048;-79
2022/08/08 10:55:15;;;;;;;1.48;1.08;;;;;;;;;;5082661;28;20303;-79
2022/08/08 10:57:50;;;;;;;2.08;1.23;;;;;;;;;;5083052;28;20032;-79
2022/08/08 11:00:21;;;;;;;2.42;1.13;;;;;;;;;;5081197;28;20020;-79
2022/08/08 11:02:47;;;;;;;1.60;1.08;;;;;;;;;;5064554;28;20035;-80
2022/08/08 11:05:12;;;;;;;2.65;1.20;;;;;;;;;;5082276;28;20029;-79
2022/08/08 11:07:42;;;;;;;2.13;1.17;;;;;;;;;;5082587;28;20024;-79
2022/08/08 11:10:13;;;;;;;2.75;1.20;;;;;;;;;;5082725;28;20029;-78
2022/08/08 11:12:59;;;;;;;2.13;1.30;;;;;;;;;;5082178;28;20024;-77
2022/08/08 11:15:28;;;;;;;2.85;1.30;;;;;;;;;;5080441;28;20021;-79
2022/08/08 11:17:54;;;;;;;2.70;1.23;;;;;;;;;;5080644;28;20025;-79
2022/08/08 11:20:24;;;;;;;2.15;1.20;;;;;;;;;;5082262;28;20077;-80
2022/08/08 11:22:52;;;;;;;2.55;1.50;;;;;;;;;;5079565;28;20025;-79
2022/08/08 11:25:22;;;;;;;4.13;1.25;;;;;;;;;;5063102;28;20029;-79
2022/08/08 11:27:49;;;;;;;1.35;1.23;;;;;;;;;;5077821;28;20025;-78
2022/08/08 11:30:15;;;;;;;1.25;1.10;;;;;;;;;;5061699;28;20481;-78
2022/08/08 11:32:41;;;;;;;3.17;1.10;;;;;;;;;;5063151;28;20082;-79
2022/08/08 11:35:12;;;;;;;1.70;1.10;;;;;;;;;;5081488;28;20333;-79
2022/08/08 11:37:41;;;;;;;2.17;1.10;;;;;;;;;;5063471;28;20050;-76
2022/08/08 11:40:09;;;;;;;3.45;1.30;;;;;;;;;;5081814;28;20024;-79
2022/08/08 11:42:36;;;;;;;3.10;1.20;;;;;;;;;;5079857;28;20477;-81
2022/08/08 11:45:05;;;;;;;6.05;1.85;;;;;;;;;;5061017;28;20020;-78
2022/08/08 11:47:31;;;;;;;3.08;1.20;;;;;;;;;;5081137;28;20032;-79
2022/08/08 11:49:59;;;;;;;1.52;1.10;;;;;;;;;;5080942;28;20029;-78
2022/08/08 11:52:25;;;;;;;4.35;1.10;;;;;;;;;;5062560;28;20111;-79
2022/08/08 11:54:51;;;;;;;2.15;1.17;;;;;;;;;;5080890;28;20440;-79
2022/08/08 11:57:16;;;;;;;3.90;1.23;;;;;;;;;;5082286;28;20089;-80
2022/08/08 11:59:51;;;;;;;1.73;1.13;;;;;;;;;;5080727;28;20024;-80
2022/08/08 12:02:16;;;;;;;2.50;1.20;;;;;;;;;;5080130;28;20043;-79
2022/08/08 12:04:42;;;;;;;2.03;1.15;;;;;;;;;;5080108;28;20486;-77
2022/08/08 12:07:07;;;;;;;3.67;1.27;;;;;;;;;;5080441;28;20016;-79
2022/08/08 12:09:34;;;;;;;2.65;1.33;;;;;;;;;;5081129;28;20020;-78
2022/08/08 12:11:59;;;;;;;2.20;1.00;;;;;;;;;;5061804;28;20030;-79
2022/08/08 12:14:25;;;;;;;5.20;1.27;;;;;;;;;;5080688;28;20509;-78
2022/08/08 12:16:52;;;;;;;1.23;1.10;;;;;;;;;;5078442;28;20033;-80
2022/08/08 12:19:21;;;;;;;1.75;1.13;;;;;;;;;;5080071;28;20025;-79
2022/08/08 12:21:46;;;;;;;1.55;1.00;;;;;;;;;;5062268;28;20021;-79
2022/08/08 12:24:14;;;;;;;4.65;1.15;;;;;;;;;;5063408;28;20032;-78
2022/08/08 12:26:47;;;;;;;1.88;1.10;;;;;;;;;;5079900;28;20058;-78
2022/08/08 12:29:26;;;;;;;1.48;1.05;;;;;;;;;;5080353;28;20028;-79
2022/08/08 12:32:03;;;;;;;1.65;1.20;;;;;;;;;;5080975;28;20028;-78
2022/08/08 12:34:43;;;;;;;1.80;1.50;;;;;;;;;;5063182;28;20055;-78
2022/08/08 12:37:19;;;;;;;1.70;1.00;;;;;;;;;;5080092;28;20024;-78
2022/08/08 12:39:45;;;;;;;1.92;1.10;;;;;;;;;;5082828;28;20088;-78
2022/08/08 12:42:10;;;;;;;2.13;0.98;;;;;;;;;;5084719;28;20146;-77
2022/08/08 12:44:39;;;;;;;2.77;1.20;;;;;;;;;;5083997;28;20023;-79
2022/08/08 12:47:05;;;;;;;1.30;1.20;;;;;;;;;;5085325;28;20753;-80
2022/08/08 12:49:33;;;;;;;2.42;1.13;;;;;;;;;;5085132;28;20028;-78
2022/08/08 12:51:59;;;;;;;3.00;1.05;;;;;;;;;;5082756;28;20115;-78
2022/08/08 12:54:27;;;;;;;3.50;1.15;;;;;;;;;;5082989;28;20024;-79
2022/08/08 12:56:53;;;;;;;2.42;1.10;;;;;;;;;;5084442;28;20051;-79
2022/08/08 12:59:21;;;;;;;4.95;1.20;;;;;;;;;;5083979;28;20024;-79
2022/08/08 13:01:58;;;;;;;5.55;1.10;;;;;;;;;;5083098;28;20048;-79
2022/08/08 13:04:25;;;;;;;2.47;1.30;;;;;;;;;;5083499;28;20492;-78
2022/08/08 13:06:55;;;;;;;4.88;1.23;;;;;;;;;;5064667;28;20032;-78
2022/08/08 13:09:36;;;;;;;4.10;1.30;;;;;;;;;;5082887;28;20059;-77
2022/08/08 13:12:10;;;;;;;3.70;1.10;;;;;;;;;;5064514;28;20077;-79
2022/08/08 13:14:38;;;;;;;2.08;1.20;;;;;;;;;;5083644;28;20507;-79
2022/08/08 13:17:04;;;;;;;1.30;1.05;;;;;;;;;;5083527;28;20028;-79
2022/08/08 13:19:30;;;;;;;1.45;1.10;;;;;;;;;;5083472;28;20021;-79
2022/08/08 13:21:55;;;;;;;3.75;1.00;;;;;;;;;;5064158;28;20057;-78
2022/08/08 13:24:21;;;;;;;2.88;1.27;;;;;;;;;;5081662;28;20017;-77
2022/08/08 13:26:47;;;;;;;6.38;1.52;;;;;;;;;;5082217;28;20024;-78
2022/08/08 13:29:13;;;;;;;2.45;1.15;;;;;;;;;;5081300;28;20059;-79
2022/08/08 13:31:48;;;;;;;7.38;1.05;;;;;;;;;;5082978;28;20056;-78
2022/08/08 13:34:20;;;;;;;3.95;1.20;;;;;;;;;;5082679;28;20460;-79
2022/08/08 13:36:46;;;;;;;2.35;1.13;;;;;;;;;;5081859;28;20028;-77
2022/08/08 13:39:15;;;;;;;1.10;1.00;;;;;;;;;;5063255;28;20027;-78
2022/08/08 13:41:42;;;;;;;2.33;1.20;;;;;;;;;;5063255;28;20017;-77
2022/08/08 13:44:07;;;;;;;1.70;1.20;;;;;;;;;;5080534;28;20150;-77
2022/08/08 13:46:32;;;;;;;5.63;1.75;;;;;;;;;;5063410;28;20048;-77
2022/08/08 13:48:58;;;;;;;4.65;1.30;;;;;;;;;;5080908;28;20028;-78
2022/08/08 13:51:23;;;;;;;4.40;1.20;;;;;;;;;;5081883;28;20050;-78
2022/08/08 13:53:51;;;;;;;3.87;1.27;;;;;;;;;;5062686;28;20035;-77
2022/08/08 13:56:28;;;;;;;4.35;1.10;;;;;;;;;;5082289;28;20288;-78
2022/08/08 13:58:53;;;;;;;1.83;1.20;;;;;;;;;;5082804;28;20025;-80
2022/08/08 14:01:18;;;;;;;3.38;1.17;;;;;;;;;;5082222;28;20029;-78
2022/08/08 14:03:52;;;;;;;4.93;1.20;;;;;;;;;;5081667;28;20029;-77
2022/08/08 14:06:17;;;;;;;1.50;1.13;;;;;;;;;;5064434;28;20063;-79
2022/08/08 14:08:44;;;;;;;3.42;1.10;;;;;;;;;;5078221;28;20024;-77
2022/08/08 14:11:16;;;;;;;2.70;1.10;;;;;;;;;;5077162;28;20024;-81
2022/08/08 14:13:42;;;;;;;2.05;1.20;;;;;;;;;;5077710;28;20086;-81
2022/08/08 14:16:08;;;;;;;1.40;1.30;;;;;;;;;;5079726;28;20028;-79
2022/08/08 14:18:33;;;;;;;1.80;1.27;;;;;;;;;;5061628;28;20024;-80
2022/08/08 14:21:05;;;;;;;3.88;1.17;;;;;;;;;;5077426;28;20032;-78
2022/08/08 14:23:41;;;;;;;2.47;1.23;;;;;;;;;;5079120;28;20410;-79
2022/08/08 14:26:07;;;;;;;1.45;1.10;;;;;;;;;;5078577;28;20021;-79
2022/08/08 14:28:32;;;;;;;2.22;1.20;;;;;;;;;;5079358;28;20048;-79
2022/08/08 14:31:09;;;;;;;2.70;1.30;;;;;;;;;;5079301;28;20048;-78
2022/08/08 14:33:34;;;;;;;2.10;1.35;;;;;;;;;;5078930;28;20626;-79
2022/08/08 14:36:08;;;;;;;2.33;1.30;;;;;;;;;;5076325;28;20078;-80
2022/08/08 14:38:35;;;;;;;4.30;1.20;;;;;;;;;;5077142;28;20370;-80
2022/08/08 14:41:13;;;;;;;5.22;1.25;;;;;;;;;;5076531;28;20585;-79
2022/08/08 14:43:52;;;;;;;3.00;1.30;;;;;;;;;;5076563;28;20040;-80
2022/08/08 14:46:19;;;;;;;3.92;1.20;;;;;;;;;;5076491;28;20032;-79
2022/08/08 14:48:47;;;;;;;1.95;1.10;;;;;;;;;;5076952;28;20388;-79
2022/08/08 14:51:14;;;;;;;3.10;1.25;;;;;;;;;;5077020;28;20539;-83
2022/08/08 14:53:42;;;;;;;4.30;1.55;;;;;;;;;;5077156;28;20512;-81
2022/08/08 14:56:08;;;;;;;1.25;1.15;;;;;;;;;;5077377;28;20029;-81
2022/08/08 14:58:34;;;;;;;2.20;1.20;;;;;;;;;;5078184;28;20400;-81
2022/08/08 15:01:02;;;;;;;2.33;1.20;;;;;;;;;;5076760;28;20029;-81
2022/08/08 15:03:27;;;;;;;1.63;1.30;;;;;;;;;;5077781;28;20029;-80
2022/08/08 15:05:53;;;;;;;3.92;1.20;;;;;;;;;;5076924;28;20050;-82
2022/08/08 15:08:18;;;;;;;4.03;1.40;;;;;;;;;;5058597;28;20028;-81
2022/08/08 15:10:44;;;;;;;3.83;1.27;;;;;;;;;;5078919;28;20438;-78
2022/08/08 15:13:12;;;;;;;2.17;1.00;;;;;;;;;;5080296;28;20253;-79
2022/08/08 15:15:39;;;;;;;2.08;1.38;;;;;;;;;;5062278;28;20090;-77
2022/08/08 15:18:04;;;;;;;2.85;1.30;;;;;;;;;;5080339;28;20052;-78
2022/08/08 15:20:29;;;;;;;3.15;1.35;;;;;;;;;;5078947;28;20021;-78